createdAt,value
2023-05-10T00:01:59.685Z,8.10
2023-05-10T00:04:28.449Z,7.60
2023-05-10T00:06:55.811Z,8.20
2023-05-10T00:09:22.429Z,8.00
2023-05-10T00:11:48.965Z,7.80
2023-05-10T00:14:15.507Z,7.50
2023-05-10T00:16:42.114Z,7.10
2023-05-10T00:19:08.868Z,7.50
2023-05-10T00:21:35.431Z,7.70
2023-05-10T00:24:01.951Z,8.30
2023-05-10T00:26:28.493Z,7.70
2023-05-10T00:28:55.406Z,7.70
2023-05-10T00:31:21.962Z,7.10
2023-05-10T00:33:48.473Z,7.40
2023-05-10T00:36:15.059Z,7.30
2023-05-10T00:38:41.613Z,8.00
2023-05-10T00:41:08.350Z,7.80
2023-05-10T00:43:35.672Z,6.50
2023-05-10T00:46:05.265Z,7.70
2023-05-10T00:48:32.896Z,7.70
2023-05-10T00:50:59.570Z,7.40
2023-05-10T00:53:26.537Z,7.20
2023-05-10T00:55:53.417Z,6.40
2023-05-10T00:58:20.059Z,8.10
2023-05-10T01:00:47.339Z,7.60
2023-05-10T01:03:14.085Z,7.90
2023-05-10T01:05:41.518Z,8.00
2023-05-10T01:08:09.615Z,7.10
2023-05-10T01:10:36.443Z,6.90
2023-05-10T01:13:04.129Z,6.80
2023-05-10T01:15:32.183Z,6.90
2023-05-10T01:17:59.664Z,7.50
2023-05-10T01:20:31.715Z,7.40
2023-05-10T01:23:23.115Z,7.30
2023-05-10T01:26:14.932Z,7.00
2023-05-10T01:29:04.747Z,7.00
2023-05-10T01:34:21.872Z,6.90
2023-05-10T01:36:56.305Z,7.10
2023-05-10T01:39:47.995Z,6.90
2023-05-10T01:42:32.774Z,6.80
2023-05-10T01:45:01.910Z,6.60
2023-05-10T01:47:33.877Z,6.90
2023-05-10T01:50:03.565Z,7.60
2023-05-10T01:52:42.798Z,6.70
2023-05-10T01:55:14.320Z,6.40
2023-05-10T01:57:43.591Z,6.10
2023-05-10T02:00:12.384Z,6.50
2023-05-10T02:02:46.151Z,6.60
2023-05-10T02:05:16.032Z,6.60
2023-05-10T02:10:11.550Z,6.60
2023-05-10T02:12:42.581Z,7.10
2023-05-10T02:15:11.438Z,5.80
2023-05-10T02:17:39.850Z,6.80
2023-05-10T02:20:08.680Z,6.00
2023-05-10T02:22:36.783Z,6.60
2023-05-10T02:25:04.556Z,5.70
2023-05-10T02:27:31.705Z,6.00
2023-05-10T02:29:59.102Z,6.20
2023-05-10T02:32:28.656Z,6.40
2023-05-10T02:34:58.164Z,6.40
2023-05-10T02:37:26.425Z,6.30
2023-05-10T02:39:56.056Z,5.70
2023-05-10T02:42:28.818Z,6.90
2023-05-10T02:45:02.496Z,6.70
2023-05-10T02:47:30.768Z,6.10
2023-05-10T02:49:57.379Z,6.90
2023-05-10T02:52:28.341Z,7.00
2023-05-10T02:55:04.117Z,7.10
2023-05-10T02:57:34.904Z,6.70
2023-05-10T03:00:04.327Z,7.00
2023-05-10T03:02:32.187Z,6.60
2023-05-10T03:04:59.537Z,7.10
2023-05-10T03:07:26.660Z,6.40
2023-05-10T03:09:53.508Z,6.80
2023-05-10T03:12:53.587Z,8.10
2023-05-10T03:15:24.188Z,6.40
2023-05-10T03:18:04.776Z,7.20
2023-05-10T03:20:44.699Z,8.10
2023-05-10T03:23:23.617Z,7.80
2023-05-10T03:25:51.827Z,7.40
2023-05-10T03:28:20.255Z,6.50
2023-05-10T03:30:47.570Z,7.70
2023-05-10T03:33:15.130Z,6.60
2023-05-10T03:35:45.088Z,8.00
2023-05-10T03:38:11.614Z,8.20
2023-05-10T03:40:38.447Z,9.30
2023-05-10T03:43:05.163Z,9.40
2023-05-10T03:45:31.974Z,7.90
2023-05-10T03:48:04.849Z,7.80
2023-05-10T03:50:34.089Z,8.60
2023-05-10T03:53:00.748Z,7.60
2023-05-10T03:55:27.908Z,7.70
2023-05-10T03:57:54.981Z,6.60
2023-05-10T04:00:22.220Z,6.30
2023-05-10T04:02:50.269Z,7.00
2023-05-10T04:05:19.243Z,6.20
2023-05-10T04:07:45.869Z,5.40
2023-05-10T04:10:12.819Z,6.50
2023-05-10T04:12:39.377Z,6.30
2023-05-10T04:15:07.572Z,6.30
2023-05-10T04:17:34.239Z,5.40
2023-05-10T04:20:00.887Z,5.50
2023-05-10T04:22:28.742Z,5.90
2023-05-10T04:24:55.314Z,5.90
2023-05-10T04:27:21.974Z,5.80
2023-05-10T04:29:49.193Z,5.80
2023-05-10T04:32:17.347Z,4.90
2023-05-10T04:34:44.538Z,5.80
2023-05-10T04:37:11.247Z,5.30
2023-05-10T04:39:38.839Z,6.00
2023-05-10T04:42:06.791Z,5.30
2023-05-10T04:44:33.808Z,5.50
2023-05-10T04:47:01.212Z,5.50
2023-05-10T04:49:27.796Z,5.50
2023-05-10T04:51:54.336Z,5.80
2023-05-10T04:54:20.979Z,5.20
2023-05-10T04:56:47.538Z,5.50
2023-05-10T04:59:14.255Z,5.50
2023-05-10T05:01:40.822Z,5.60
2023-05-10T05:04:08.015Z,5.90
2023-05-10T05:06:34.689Z,5.40
2023-05-10T05:09:01.225Z,5.80
2023-05-10T05:11:27.973Z,4.90
2023-05-10T05:13:54.619Z,5.10
2023-05-10T05:16:21.162Z,5.50
2023-05-10T05:18:47.886Z,4.70
2023-05-10T05:21:19.415Z,4.80
2023-05-10T05:23:46.523Z,4.60
2023-05-10T05:26:13.073Z,5.50
2023-05-10T05:28:39.703Z,5.10
2023-05-10T05:31:08.756Z,4.80
2023-05-10T05:33:35.853Z,4.50
2023-05-10T05:36:03.985Z,4.90
2023-05-10T05:38:30.609Z,4.90
2023-05-10T05:40:57.166Z,4.90
2023-05-10T05:43:23.798Z,5.60
2023-05-10T05:45:50.683Z,5.10
2023-05-10T05:48:17.241Z,5.40
2023-05-10T05:50:43.825Z,4.80
2023-05-10T05:53:10.846Z,5.30
2023-05-10T05:55:37.551Z,5.60
2023-05-10T05:58:04.249Z,4.70
2023-05-10T06:00:30.832Z,5.10
2023-05-10T06:02:58.192Z,4.70
2023-05-10T06:05:24.872Z,4.40
2023-05-10T06:07:51.426Z,4.80
2023-05-10T06:10:18.006Z,4.70
2023-05-10T06:12:44.622Z,5.10
2023-05-10T06:15:11.509Z,4.10
2023-05-10T06:17:38.026Z,4.00
2023-05-10T06:20:05.005Z,3.90
2023-05-10T06:22:31.522Z,3.90
2023-05-10T06:24:59.642Z,3.40
2023-05-10T06:27:26.262Z,4.00
2023-05-10T06:30:02.161Z,3.70
2023-05-10T06:32:32.407Z,4.00
2023-05-10T06:34:59.134Z,4.50
2023-05-10T06:37:25.776Z,3.30
2023-05-10T06:39:52.527Z,3.40
2023-05-10T06:42:19.144Z,3.10
2023-05-10T06:44:46.468Z,3.10
2023-05-10T06:47:13.352Z,2.70
2023-05-10T06:49:39.941Z,2.80
2023-05-10T06:52:06.461Z,2.50
2023-05-10T06:54:33.067Z,2.90
2023-05-10T06:57:01.209Z,2.30
2023-05-10T06:59:28.680Z,3.20
2023-05-10T07:01:55.864Z,2.10
2023-05-10T07:04:22.647Z,2.50
2023-05-10T07:06:50.781Z,2.60
2023-05-10T07:09:17.466Z,2.40
2023-05-10T07:11:44.096Z,2.20
2023-05-10T07:14:10.952Z,2.70
2023-05-10T07:16:37.851Z,2.20
2023-05-10T07:19:06.317Z,2.20
2023-05-10T07:21:33.262Z,2.40
2023-05-10T07:24:01.288Z,2.80
2023-05-10T07:26:27.898Z,2.50
2023-05-10T07:28:54.451Z,2.80
2023-05-10T07:31:21.108Z,2.50
2023-05-10T07:33:47.632Z,2.70
2023-05-10T07:36:14.205Z,2.30
2023-05-10T07:38:41.402Z,2.30
2023-05-10T07:41:08.205Z,2.20
2023-05-10T07:43:34.746Z,2.20
2023-05-10T07:46:02.432Z,2.10
2023-05-10T07:49:49.248Z,2.20
2023-05-10T07:52:16.423Z,2.20
2023-05-10T07:54:42.995Z,2.10
2023-05-10T07:57:09.869Z,1.80
2023-05-10T07:59:36.530Z,2.10
2023-05-10T08:02:03.205Z,1.90
2023-05-10T08:04:29.883Z,2.50
2023-05-10T08:06:56.634Z,2.10
2023-05-10T08:09:25.139Z,1.60
2023-05-10T08:11:52.070Z,2.20
2023-05-10T08:14:19.165Z,2.20
2023-05-10T08:16:45.787Z,1.90
2023-05-10T08:19:12.482Z,2.40
2023-05-10T08:21:39.469Z,2.20
2023-05-10T08:24:06.693Z,2.30
2023-05-10T08:26:33.608Z,3.70
2023-05-10T08:29:00.322Z,2.20
2023-05-10T08:31:26.887Z,3.70
2023-05-10T08:33:53.786Z,2.30
2023-05-10T08:36:25.227Z,2.90
2023-05-10T08:38:53.089Z,2.00
2023-05-10T08:41:25.557Z,2.10
2023-05-10T08:43:56.188Z,2.40
2023-05-10T08:46:24.832Z,2.00
2023-05-10T08:48:53.556Z,1.90
2023-05-10T08:51:26.251Z,1.80
2023-05-10T08:53:53.407Z,2.10
2023-05-10T08:56:21.850Z,2.00
2023-05-10T08:58:48.548Z,2.00
2023-05-10T09:01:17.295Z,2.00
2023-05-10T09:03:44.753Z,2.10
2023-05-10T09:06:14.292Z,2.10
2023-05-10T09:08:43.839Z,2.00
2023-05-10T09:13:40.423Z,2.40
2023-05-10T09:18:48.273Z,1.80
2023-05-10T09:21:14.869Z,2.00
2023-05-10T09:23:48.221Z,1.80
2023-05-10T09:26:15.677Z,1.70
2023-05-10T09:28:52.800Z,2.30
2023-05-10T09:31:19.737Z,2.10
2023-05-10T09:33:48.142Z,2.50
2023-05-10T09:36:15.684Z,2.00
2023-05-10T09:38:54.594Z,2.30
2023-05-10T09:41:23.548Z,2.00
2023-05-10T09:43:50.761Z,2.40
2023-05-10T09:46:17.718Z,2.10
2023-05-10T09:48:48.744Z,2.10
2023-05-10T09:51:23.041Z,2.20
2023-05-10T09:53:51.644Z,1.80
2023-05-10T09:56:36.512Z,2.40
2023-05-10T09:59:04.209Z,2.40
2023-05-10T10:01:31.420Z,2.30
2023-05-10T10:03:59.253Z,2.40
2023-05-10T10:06:30.027Z,1.90
2023-05-10T10:08:57.766Z,2.20
2023-05-10T10:11:25.157Z,2.10
2023-05-10T10:13:51.937Z,1.90
2023-05-10T10:16:19.117Z,2.00
2023-05-10T10:18:45.886Z,2.20
2023-05-10T10:21:15.694Z,2.40
2023-05-10T10:23:46.332Z,2.60
2023-05-10T10:26:14.464Z,2.30
2023-05-10T10:28:58.614Z,2.40
2023-05-10T10:31:43.904Z,2.20
2023-05-10T10:34:32.734Z,2.10
2023-05-10T10:37:07.780Z,1.80
2023-05-10T10:39:37.663Z,2.20
2023-05-10T10:42:05.930Z,1.70
2023-05-10T10:44:35.395Z,1.90
2023-05-10T10:50:14.422Z,1.80
2023-05-10T10:52:42.183Z,2.30
2023-05-10T10:55:13.577Z,2.10
2023-05-10T10:58:01.086Z,2.30
2023-05-10T11:00:34.722Z,2.10
2023-05-10T11:03:10.436Z,1.90
2023-05-10T11:05:46.910Z,2.10
2023-05-10T11:08:35.131Z,1.90
2023-05-10T11:11:08.902Z,1.70
2023-05-10T11:13:39.813Z,2.10
2023-05-10T11:16:26.476Z,1.90
2023-05-10T11:19:04.533Z,2.00
2023-05-10T11:21:32.535Z,1.70
2023-05-10T11:24:01.177Z,2.60
2023-05-10T11:26:36.106Z,2.20
2023-05-10T11:29:06.609Z,2.20
2023-05-10T11:31:34.231Z,1.80
2023-05-10T11:34:05.909Z,1.60
2023-05-10T11:36:38.044Z,1.50
2023-05-10T11:39:06.101Z,1.90
2023-05-10T11:41:33.664Z,2.00
2023-05-10T11:44:01.123Z,2.70
2023-05-10T11:46:29.888Z,1.80
2023-05-10T11:49:03.046Z,1.80
2023-05-10T11:51:29.938Z,1.90
2023-05-10T11:53:58.868Z,1.80
2023-05-10T11:56:28.899Z,2.20
2023-05-10T11:58:58.249Z,2.10
2023-05-10T12:01:27.782Z,1.80
2023-05-10T12:03:56.074Z,1.90
2023-05-10T12:06:23.177Z,1.80
2023-05-10T12:08:56.554Z,2.00
2023-05-10T12:11:26.861Z,1.80
2023-05-10T12:13:54.159Z,2.00
2023-05-10T12:16:26.812Z,2.00
2023-05-10T12:18:57.583Z,2.00
2023-05-10T12:21:25.083Z,2.30
2023-05-10T12:23:53.442Z,2.10
2023-05-10T12:26:25.959Z,2.00
2023-05-10T12:28:54.073Z,2.30
2023-05-10T12:31:21.809Z,2.10
2023-05-10T12:33:50.513Z,2.60
2023-05-10T12:36:17.783Z,2.70
2023-05-10T12:38:49.032Z,2.40
2023-05-10T12:41:17.713Z,2.50
2023-05-10T12:43:46.541Z,2.30
2023-05-10T12:46:15.455Z,2.00
2023-05-10T12:48:44.220Z,2.00
2023-05-10T12:51:13.303Z,2.40
2023-05-10T12:53:43.425Z,2.10
2023-05-10T12:56:11.521Z,2.40
2023-05-10T12:58:39.115Z,2.20
2023-05-10T13:01:06.669Z,2.30
2023-05-10T13:03:33.474Z,2.30
2023-05-10T13:06:00.237Z,2.10
2023-05-10T13:08:27.043Z,2.10
2023-05-10T13:10:54.222Z,1.90
2023-05-10T13:13:21.138Z,1.90
2023-05-10T13:15:47.844Z,1.90
2023-05-10T13:18:14.584Z,1.60
2023-05-10T13:20:41.728Z,1.90
2023-05-10T13:23:08.410Z,2.10
2023-05-10T13:25:35.446Z,2.20
2023-05-10T13:28:03.160Z,1.80
2023-05-10T13:30:29.927Z,1.90
2023-05-10T13:32:56.673Z,1.70
2023-05-10T13:35:23.546Z,1.60
2023-05-10T13:37:50.286Z,2.20
2023-05-10T13:40:18.197Z,2.20
2023-05-10T13:42:45.112Z,2.40
2023-05-10T13:45:14.271Z,2.20
2023-05-10T13:47:41.283Z,1.90
2023-05-10T13:50:08.903Z,2.50
2023-05-10T13:52:36.393Z,1.70
2023-05-10T13:55:03.856Z,2.80
2023-05-10T13:57:31.490Z,1.80
2023-05-10T13:59:58.944Z,1.80
2023-05-10T14:02:26.449Z,1.80
2023-05-10T14:04:53.407Z,1.70
2023-05-10T14:07:20.493Z,1.70
2023-05-10T14:09:47.630Z,2.00
2023-05-10T14:12:15.701Z,2.10
2023-05-10T14:14:42.586Z,2.50
2023-05-10T14:17:12.010Z,1.70
2023-05-10T14:19:39.996Z,2.00
2023-05-10T14:22:07.172Z,2.00
2023-05-10T14:24:34.022Z,3.20
2023-05-10T14:27:01.383Z,2.10
2023-05-10T14:29:28.527Z,2.00
2023-05-10T14:31:55.543Z,2.10
2023-05-10T14:34:22.575Z,2.00
2023-05-10T14:36:49.700Z,2.00
2023-05-10T14:39:16.775Z,2.40
2023-05-10T14:41:45.626Z,2.20
2023-05-10T14:44:12.598Z,1.90
2023-05-10T14:46:40.460Z,2.50
2023-05-10T14:49:07.502Z,2.00
2023-05-10T14:51:34.322Z,2.20
2023-05-10T14:54:01.825Z,1.80
2023-05-10T14:56:29.000Z,2.60
2023-05-10T14:58:56.764Z,2.20
2023-05-10T15:01:24.658Z,2.50
2023-05-10T15:03:52.135Z,2.90
2023-05-10T15:06:26.410Z,2.60
2023-05-10T15:08:53.778Z,2.00
2023-05-10T15:11:21.682Z,2.20
2023-05-10T15:13:48.837Z,2.00
2023-05-10T15:16:15.886Z,2.10
2023-05-10T15:18:42.834Z,2.10
2023-05-10T15:21:11.178Z,1.80
2023-05-10T15:23:38.956Z,2.00
2023-05-10T15:26:06.435Z,1.80
2023-05-10T15:28:34.562Z,2.00
2023-05-10T15:31:02.017Z,2.10
2023-05-10T15:33:30.296Z,1.90
2023-05-10T15:35:57.295Z,2.00
2023-05-10T15:38:25.807Z,2.40
2023-05-10T15:40:58.086Z,2.60
2023-05-10T15:43:25.708Z,4.10
2023-05-10T15:45:53.306Z,1.70
2023-05-10T15:48:20.861Z,1.80
2023-05-10T15:50:48.126Z,1.70
2023-05-10T15:53:17.889Z,2.10
2023-05-10T15:58:12.743Z,2.50
2023-05-10T16:00:40.508Z,2.00
2023-05-10T16:03:09.085Z,2.20
2023-05-10T16:05:39.983Z,2.30
2023-05-10T16:08:07.534Z,1.80
2023-05-10T16:10:34.689Z,1.70
2023-05-10T16:13:04.394Z,2.20
2023-05-10T16:15:32.082Z,2.00
2023-05-10T16:18:02.953Z,2.10
2023-05-10T16:20:30.201Z,1.90
2023-05-10T16:22:57.473Z,2.10
2023-05-10T16:25:24.253Z,1.90
2023-05-10T16:27:51.647Z,2.10
2023-05-10T16:30:21.302Z,2.20
2023-05-10T16:32:51.284Z,2.40
2023-05-10T16:35:19.154Z,2.00
2023-05-10T16:37:46.539Z,2.30
2023-05-10T16:40:14.311Z,2.00
2023-05-10T16:42:42.115Z,2.30
2023-05-10T16:45:09.858Z,2.20
2023-05-10T16:47:38.217Z,2.10
2023-05-10T16:50:07.645Z,2.60
2023-05-10T16:52:35.580Z,2.30
2023-05-10T16:55:03.318Z,2.10
2023-05-10T16:57:30.873Z,2.10
2023-05-10T16:59:57.605Z,2.50
2023-05-10T17:02:24.416Z,2.10
2023-05-10T17:04:53.172Z,2.20
2023-05-10T17:07:19.821Z,1.80
2023-05-10T17:09:46.788Z,1.90
2023-05-10T17:12:13.457Z,2.30
2023-05-10T17:14:40.163Z,2.50
2023-05-10T17:17:07.052Z,2.50
2023-05-10T17:19:33.864Z,2.10
2023-05-10T17:22:00.766Z,2.40
2023-05-10T17:24:29.714Z,2.20
2023-05-10T17:26:57.444Z,2.80
2023-05-10T17:29:24.346Z,2.70
2023-05-10T17:31:51.103Z,3.50
2023-05-10T17:34:18.512Z,2.40
2023-05-10T17:36:47.036Z,3.20
2023-05-10T17:39:16.528Z,2.80
2023-05-10T17:41:43.948Z,3.10
2023-05-10T17:44:13.455Z,4.90
2023-05-10T17:46:40.419Z,5.40
2023-05-10T17:49:08.243Z,7.80
2023-05-10T17:51:35.883Z,10.00
2023-05-10T17:54:03.682Z,9.60
2023-05-10T17:56:33.153Z,8.00
2023-05-10T17:59:00.500Z,10.30
2023-05-10T18:01:27.965Z,13.80
2023-05-10T18:03:59.467Z,12.40
2023-05-10T18:06:27.074Z,12.10
2023-05-10T18:08:54.575Z,13.20
2023-05-10T18:11:22.493Z,14.20
2023-05-10T18:13:51.412Z,17.20
2023-05-10T18:16:18.704Z,16.20
2023-05-10T18:18:45.396Z,21.60
2023-05-10T18:21:12.589Z,15.00
2023-05-10T18:23:39.584Z,12.40
2023-05-10T18:26:08.477Z,8.90
2023-05-10T18:28:35.978Z,8.90
2023-05-10T18:31:03.512Z,8.90
2023-05-10T18:33:30.846Z,8.50
2023-05-10T18:35:57.988Z,9.30
2023-05-10T18:38:24.757Z,9.60
2023-05-10T18:40:51.787Z,9.80
2023-05-10T18:43:18.739Z,9.90
2023-05-10T18:45:45.588Z,9.00
2023-05-10T18:48:12.361Z,8.50
2023-05-10T18:50:39.456Z,9.90
2023-05-10T18:53:06.136Z,10.70
2023-05-10T18:55:32.861Z,7.80
2023-05-10T18:57:59.489Z,9.00
2023-05-10T19:00:26.376Z,11.20
2023-05-10T19:02:53.689Z,25.00
2023-05-10T19:05:20.683Z,20.70
2023-05-10T19:07:47.716Z,14.70
2023-05-10T19:10:15.213Z,17.10
2023-05-10T19:12:41.959Z,15.10
2023-05-10T19:15:09.770Z,14.50
2023-05-10T19:17:38.873Z,11.50
2023-05-10T19:20:07.976Z,10.40
2023-05-10T19:22:47.101Z,11.00
2023-05-10T19:25:21.899Z,11.10
2023-05-10T19:27:48.705Z,9.10
2023-05-10T19:30:15.542Z,12.10
2023-05-10T19:32:44.484Z,13.80
2023-05-10T19:35:13.730Z,12.20
2023-05-10T19:37:45.910Z,14.20
2023-05-10T19:40:16.034Z,12.30
2023-05-10T19:42:42.933Z,12.50
2023-05-10T19:45:10.498Z,12.70
2023-05-10T19:47:37.389Z,16.80
2023-05-10T19:50:04.558Z,17.70
2023-05-10T19:52:31.184Z,13.70
2023-05-10T19:54:57.862Z,14.20
2023-05-10T19:57:24.584Z,14.80
2023-05-10T19:59:51.144Z,14.70
2023-05-10T20:02:17.719Z,13.80
2023-05-10T20:04:45.020Z,12.30
2023-05-10T20:07:12.401Z,12.00
2023-05-10T20:09:39.598Z,11.80
2023-05-10T20:12:06.476Z,11.70
2023-05-10T20:14:33.321Z,11.40
2023-05-10T20:17:00.047Z,10.80
2023-05-10T20:19:26.838Z,11.30
2023-05-10T20:21:56.108Z,11.10
2023-05-10T20:24:23.460Z,10.50
2023-05-10T20:26:50.355Z,8.70
2023-05-10T20:29:17.180Z,8.90
2023-05-10T20:31:43.927Z,8.00
2023-05-10T20:34:10.929Z,7.50
2023-05-10T20:36:38.355Z,7.80
2023-05-10T20:39:05.467Z,6.90
2023-05-10T20:41:32.204Z,6.20
2023-05-10T20:44:00.687Z,6.90
2023-05-10T20:46:27.928Z,6.50
2023-05-10T20:48:54.798Z,5.90
2023-05-10T20:51:21.689Z,5.50
2023-05-10T20:53:48.313Z,6.40
2023-05-10T20:56:15.114Z,5.50
2023-05-10T20:58:41.831Z,5.60
2023-05-10T21:01:08.656Z,5.30
2023-05-10T21:03:35.831Z,5.60
2023-05-10T21:06:02.516Z,5.30
2023-05-10T21:08:29.196Z,5.30
2023-05-10T21:10:56.286Z,4.30
2023-05-10T21:13:23.184Z,5.00
2023-05-10T21:15:50.026Z,5.00
2023-05-10T21:18:16.815Z,5.20
2023-05-10T21:20:43.475Z,5.10
2023-05-10T21:23:09.984Z,5.10
2023-05-10T21:25:37.578Z,4.80
2023-05-10T21:28:04.250Z,4.70
2023-05-10T21:30:30.892Z,5.00
2023-05-10T21:32:59.859Z,5.00
2023-05-10T21:35:26.780Z,5.10
2023-05-10T21:37:53.342Z,4.70
2023-05-10T21:40:20.316Z,5.00
2023-05-10T21:42:49.467Z,5.00
2023-05-10T21:45:17.174Z,4.80
2023-05-10T21:47:44.137Z,5.00
2023-05-10T21:50:11.920Z,5.20
2023-05-10T21:52:39.153Z,4.90
2023-05-10T21:55:06.608Z,4.90
2023-05-10T21:57:33.169Z,5.00
2023-05-10T21:59:59.797Z,4.80
2023-05-10T22:02:26.574Z,4.70
2023-05-10T22:04:53.264Z,4.60
2023-05-10T22:07:19.895Z,4.70
2023-05-10T22:09:46.510Z,4.80
2023-05-10T22:12:13.216Z,5.00
2023-05-10T22:14:39.776Z,5.20
2023-05-10T22:17:06.408Z,4.90
2023-05-10T22:19:33.009Z,5.00
2023-05-10T22:21:59.535Z,5.50
2023-05-10T22:24:26.333Z,5.30
2023-05-10T22:26:56.160Z,5.40
2023-05-10T22:29:24.114Z,5.50
2023-05-10T22:31:50.790Z,4.80
2023-05-10T22:34:18.721Z,4.50
2023-05-10T22:36:45.478Z,5.10
2023-05-10T22:39:12.232Z,4.90
2023-05-10T22:41:38.760Z,5.30
2023-05-10T22:44:05.360Z,5.10
2023-05-10T22:46:32.996Z,4.80
2023-05-10T22:48:59.745Z,5.10
2023-05-10T22:51:26.543Z,4.80
2023-05-10T22:53:53.016Z,4.40
2023-05-10T22:56:21.853Z,4.60
2023-05-10T22:58:49.442Z,4.60
2023-05-10T23:01:16.124Z,5.00
2023-05-10T23:03:42.789Z,4.30
2023-05-10T23:06:09.345Z,4.70
2023-05-10T23:08:35.830Z,4.80
2023-05-10T23:11:02.460Z,4.20
2023-05-10T23:13:29.016Z,4.30
2023-05-10T23:15:55.618Z,4.10
2023-05-10T23:18:22.287Z,4.80
2023-05-10T23:20:48.889Z,5.50
2023-05-10T23:23:15.802Z,4.80
2023-05-10T23:25:42.305Z,4.40
2023-05-10T23:28:08.845Z,4.70
2023-05-10T23:30:35.675Z,5.10
2023-05-10T23:33:02.266Z,4.80
2023-05-10T23:35:28.916Z,4.20
2023-05-10T23:37:55.658Z,4.40
2023-05-10T23:40:22.582Z,4.20
2023-05-10T23:42:49.149Z,3.70
2023-05-10T23:45:16.111Z,3.80
2023-05-10T23:47:42.701Z,4.00
2023-05-10T23:50:10.091Z,4.40
2023-05-10T23:52:36.650Z,4.80
2023-05-10T23:55:03.614Z,4.20
2023-05-10T23:57:30.218Z,4.30
2023-05-10T23:59:56.712Z,3.80
